THY14Y BIKF-LTFM
Flight info
| Callsign | THY14Y |
|---|---|
| Flight time | N/A |
| Altitude | 37000 |
| Route | OSKUM3A OSKUM DCT 62N010W DCT NALAN/N0488F370 DCT LAMRO DCT ARTEX DCT VAXIT DCT DOREV DCT ATTUS DCT BUMIL M748 HDO DCT ODNEM DCT ERGOM/N0474F390 DCT TIMUR DCT XANEX L606 GASRU T390 RILEX |
| Aircraft | B77W/H-SDE1E2E3FGHIJ2J3J4J5M1RWXY/LB1D1 |
Departure
| Time | 2026-05-06 14:33 |
|---|---|
| Airport | Keflavik International Airport (BIKF) |
Arrival
| Time | N/A |
|---|---|
| Airport | İstanbul Airport (LTFM) |
| Time | Latitude | Longitude | Altitude | Speed | Heading |
|---|---|---|---|---|---|
| 2026-05-06 14:01 | 63.99265 | -22.62452 | 177 ft | 0 kts | 360° |
| 2026-05-06 14:18 | 63.99253 | -22.62452 | 142 ft | 4 kts | 360° |
| 2026-05-06 14:19 | 63.99225 | -22.62452 | 146 ft | 4 kts | 0° |
| 2026-05-06 14:19 | 63.99201 | -22.62452 | 146 ft | 3 kts | 1° |
| 2026-05-06 14:19 | 63.99180 | -22.62466 | 147 ft | 4 kts | 56° |
| 2026-05-06 14:19 | 63.99172 | -22.62520 | 147 ft | 4 kts | 89° |
| 2026-05-06 14:20 | 63.99172 | -22.62559 | 147 ft | 1 kts | 90° |
| 2026-05-06 14:20 | 63.99172 | -22.62564 | 148 ft | 0 kts | 90° |
| 2026-05-06 14:22 | 63.99172 | -22.62562 | 147 ft | 1 kts | 90° |
| 2026-05-06 14:22 | 63.99173 | -22.62482 | 147 ft | 1 kts | 90° |
| 2026-05-06 14:22 | 63.99173 | -22.62457 | 147 ft | 2 kts | 89° |
| 2026-05-06 14:23 | 63.99173 | -22.62431 | 148 ft | 2 kts | 89° |
| 2026-05-06 14:23 | 63.99173 | -22.62403 | 148 ft | 2 kts | 89° |
| 2026-05-06 14:23 | 63.99174 | -22.62335 | 147 ft | 6 kts | 88° |
| 2026-05-06 14:23 | 63.99176 | -22.62204 | 147 ft | 10 kts | 88° |
| 2026-05-06 14:24 | 63.99177 | -22.62017 | 147 ft | 13 kts | 90° |
| 2026-05-06 14:24 | 63.99176 | -22.61808 | 150 ft | 13 kts | 90° |
| 2026-05-06 14:24 | 63.99176 | -22.61603 | 154 ft | 13 kts | 90° |
| 2026-05-06 14:24 | 63.99177 | -22.61393 | 159 ft | 13 kts | 91° |
| 2026-05-06 14:25 | 63.99175 | -22.61188 | 163 ft | 13 kts | 91° |
| 2026-05-06 14:25 | 63.99161 | -22.60985 | 168 ft | 13 kts | 118° |
| 2026-05-06 14:25 | 63.99098 | -22.60937 | 171 ft | 10 kts | 179° |
| 2026-05-06 14:25 | 63.99030 | -22.60937 | 175 ft | 10 kts | 180° |
| 2026-05-06 14:26 | 63.98903 | -22.60940 | 175 ft | 25 kts | 181° |
| 2026-05-06 14:26 | 63.98683 | -22.60944 | 171 ft | 38 kts | 180° |
| 2026-05-06 14:26 | 63.98404 | -22.60944 | 170 ft | 38 kts | 179° |
| 2026-05-06 14:26 | 63.98256 | -22.60941 | 169 ft | 20 kts | 179° |
| 2026-05-06 14:27 | 63.98113 | -22.60940 | 172 ft | 20 kts | 180° |
| 2026-05-06 14:27 | 63.97971 | -22.60938 | 174 ft | 20 kts | 179° |
| 2026-05-06 14:27 | 63.97831 | -22.60936 | 174 ft | 20 kts | 180° |
| 2026-05-06 14:27 | 63.97691 | -22.60935 | 174 ft | 20 kts | 181° |
| 2026-05-06 14:28 | 63.97551 | -22.60940 | 171 ft | 20 kts | 180° |
| 2026-05-06 14:28 | 63.97406 | -22.60943 | 169 ft | 21 kts | 180° |
| 2026-05-06 14:28 | 63.97262 | -22.60941 | 165 ft | 21 kts | 179° |
| 2026-05-06 14:28 | 63.97110 | -22.60937 | 159 ft | 23 kts | 179° |
| 2026-05-06 14:29 | 63.96943 | -22.60936 | 153 ft | 24 kts | 180° |
| 2026-05-06 14:29 | 63.96796 | -22.60937 | 148 ft | 20 kts | 180° |
| 2026-05-06 14:29 | 63.96653 | -22.60938 | 143 ft | 18 kts | 180° |
| 2026-05-06 14:29 | 63.96562 | -22.60940 | 140 ft | 8 kts | 180° |
| 2026-05-06 14:30 | 63.96505 | -22.60938 | 140 ft | 8 kts | 173° |
| 2026-05-06 14:30 | 63.96471 | -22.60900 | 140 ft | 2 kts | 133° |
| 2026-05-06 14:30 | 63.96466 | -22.60876 | 141 ft | 0 kts | 114° |
| 2026-05-06 14:32 | 63.96465 | -22.60868 | 141 ft | 2 kts | 108° |
| 2026-05-06 14:32 | 63.96462 | -22.60747 | 144 ft | 16 kts | 91° |
| 2026-05-06 14:32 | 63.96485 | -22.60533 | 150 ft | 12 kts | 29° |
| 2026-05-06 14:32 | 63.96576 | -22.60532 | 153 ft | 19 kts | 358° |
| 2026-05-06 14:33 | 63.96952 | -22.60530 | 165 ft | 91 kts | 1° |
| 2026-05-06 14:33 | 63.97825 | -22.60533 | 203 ft | 152 kts | 3° |
| 2026-05-06 14:33 | 63.98928 | -22.60510 | 718 ft | 163 kts | 4° |
| 2026-05-06 14:33 | 64.00073 | -22.60527 | 1563 ft | 163 kts | 4° |
| 2026-05-06 14:34 | 64.01250 | -22.60550 | 2226 ft | 175 kts | 3° |
| 2026-05-06 14:34 | 64.02567 | -22.60572 | 2487 ft | 204 kts | 3° |
| 2026-05-06 14:34 | 64.04036 | -22.60202 | 2808 ft | 221 kts | 24° |
| 2026-05-06 14:34 | 64.05303 | -22.58089 | 3415 ft | 234 kts | 50° |
| 2026-05-06 14:35 | 64.06168 | -22.54991 | 4294 ft | 238 kts | 65° |
| 2026-05-06 14:35 | 64.06429 | -22.51249 | 5153 ft | 242 kts | 89° |
| 2026-05-06 14:35 | 64.06371 | -22.47352 | 5895 ft | 249 kts | 88° |
| 2026-05-06 14:35 | 64.06334 | -22.43386 | 6746 ft | 250 kts | 91° |
| 2026-05-06 14:36 | 64.05852 | -22.39544 | 7451 ft | 257 kts | 117° |
| 2026-05-06 14:36 | 64.04928 | -22.35984 | 8166 ft | 263 kts | 115° |
| 2026-05-06 14:36 | 64.04010 | -22.32316 | 8949 ft | 268 kts | 115° |
| 2026-05-06 14:36 | 64.03080 | -22.28575 | 9743 ft | 273 kts | 115° |
| 2026-05-06 14:37 | 64.02139 | -22.24804 | 10564 ft | 276 kts | 115° |
| 2026-05-06 14:37 | 64.01173 | -22.20927 | 10979 ft | 296 kts | 116° |
| 2026-05-06 14:37 | 64.00111 | -22.16668 | 11201 ft | 322 kts | 116° |
| 2026-05-06 14:37 | 63.98956 | -22.12045 | 11441 ft | 347 kts | 116° |
| 2026-05-06 14:38 | 63.97733 | -22.07177 | 12050 ft | 360 kts | 116° |
| 2026-05-06 14:38 | 63.96477 | -22.02201 | 13062 ft | 365 kts | 116° |
| 2026-05-06 14:38 | 63.95204 | -21.97162 | 14083 ft | 370 kts | 116° |
| 2026-05-06 14:38 | 63.93913 | -21.92061 | 15103 ft | 371 kts | 117° |
| 2026-05-06 14:39 | 63.92616 | -21.86932 | 16072 ft | 376 kts | 117° |
| 2026-05-06 14:39 | 63.91297 | -21.81734 | 16885 ft | 383 kts | 117° |
| 2026-05-06 14:39 | 63.90411 | -21.78248 | 17474 ft | 386 kts | 117° |
| 2026-05-06 14:39 | 63.88592 | -21.71116 | 18684 ft | 393 kts | 117° |
| 2026-05-06 14:40 | 63.87213 | -21.65721 | 19476 ft | 397 kts | 117° |
| 2026-05-06 14:40 | 63.86291 | -21.62126 | 19988 ft | 399 kts | 117° |
| 2026-05-06 14:40 | 63.84411 | -21.54808 | 21021 ft | 405 kts | 117° |
| 2026-05-06 14:40 | 63.83466 | -21.51143 | 21528 ft | 408 kts | 117° |
| 2026-05-06 14:41 | 63.82025 | -21.45563 | 22296 ft | 412 kts | 117° |
| 2026-05-06 14:41 | 63.80573 | -21.39949 | 23048 ft | 416 kts | 117° |
| 2026-05-06 14:41 | 63.78623 | -21.32427 | 23969 ft | 421 kts | 117° |
| 2026-05-06 14:41 | 63.77128 | -21.26663 | 24483 ft | 425 kts | 116° |
| 2026-05-06 14:42 | 63.76250 | -21.22600 | 24780 ft | 427 kts | 107° |
| 2026-05-06 14:42 | 63.75642 | -21.16163 | 25183 ft | 424 kts | 94° |
| 2026-05-06 14:42 | 63.75329 | -21.09491 | 25618 ft | 431 kts | 94° |
| 2026-05-06 14:42 | 63.74965 | -21.02711 | 26112 ft | 437 kts | 95° |
| 2026-05-06 14:43 | 63.74559 | -20.95853 | 26628 ft | 441 kts | 96° |
| 2026-05-06 14:43 | 63.74128 | -20.88952 | 27111 ft | 446 kts | 96° |
| 2026-05-06 14:43 | 63.73679 | -20.81970 | 27569 ft | 451 kts | 96° |
| 2026-05-06 14:43 | 63.73220 | -20.74911 | 27996 ft | 456 kts | 96° |
| 2026-05-06 14:44 | 63.72759 | -20.67857 | 28423 ft | 461 kts | 96° |
| 2026-05-06 14:44 | 63.72287 | -20.60668 | 28833 ft | 466 kts | 96° |
| 2026-05-06 14:44 | 63.71807 | -20.53378 | 29237 ft | 470 kts | 97° |
| 2026-05-06 14:45 | 63.70725 | -20.38722 | 30038 ft | 477 kts | 101° |
| 2026-05-06 14:45 | 63.69918 | -20.31462 | 30384 ft | 480 kts | 103° |
| 2026-05-06 14:45 | 63.68997 | -20.24168 | 30753 ft | 482 kts | 104° |
| 2026-05-06 14:45 | 63.68045 | -20.16915 | 31118 ft | 483 kts | 105° |
| 2026-05-06 14:46 | 63.67105 | -20.09740 | 31475 ft | 484 kts | 104° |
| 2026-05-06 14:46 | 63.66163 | -20.02434 | 31834 ft | 485 kts | 104° |
| 2026-05-06 14:46 | 63.65238 | -19.95122 | 32187 ft | 486 kts | 104° |
| 2026-05-06 14:46 | 63.64318 | -19.87774 | 32542 ft | 487 kts | 104° |
| 2026-05-06 14:47 | 63.63414 | -19.80501 | 32898 ft | 489 kts | 104° |
| 2026-05-06 14:47 | 63.62497 | -19.73124 | 33231 ft | 490 kts | 104° |
| 2026-05-06 14:47 | 63.61569 | -19.65693 | 33375 ft | 496 kts | 103° |
| 2026-05-06 14:47 | 63.60627 | -19.58178 | 33612 ft | 498 kts | 104° |
| 2026-05-06 14:48 | 63.59685 | -19.50701 | 34058 ft | 497 kts | 104° |
| 2026-05-06 14:48 | 63.58734 | -19.43209 | 34318 ft | 499 kts | 104° |
| 2026-05-06 14:48 | 63.57776 | -19.35691 | 34478 ft | 503 kts | 104° |
| 2026-05-06 14:48 | 63.56809 | -19.28142 | 34786 ft | 502 kts | 105° |
| 2026-05-06 14:49 | 63.55841 | -19.20637 | 35186 ft | 500 kts | 104° |
| 2026-05-06 14:49 | 63.54880 | -19.13215 | 35365 ft | 503 kts | 104° |
| 2026-05-06 14:49 | 63.53897 | -19.05661 | 35624 ft | 502 kts | 104° |
| 2026-05-06 14:49 | 63.52917 | -18.98155 | 35945 ft | 501 kts | 105° |
| 2026-05-06 14:50 | 63.51930 | -18.90642 | 36206 ft | 502 kts | 105° |
| 2026-05-06 14:50 | 63.50938 | -18.83113 | 36340 ft | 505 kts | 105° |
| 2026-05-06 14:50 | 63.49943 | -18.75603 | 36706 ft | 502 kts | 105° |
| 2026-05-06 14:50 | 63.48946 | -18.68122 | 37036 ft | 501 kts | 105° |
| 2026-05-06 14:51 | 63.47941 | -18.60615 | 37066 ft | 506 kts | 105° |
| 2026-05-06 14:51 | 63.45904 | -18.45475 | 37150 ft | 507 kts | 105° |
| 2026-05-06 14:52 | 63.43856 | -18.30413 | 37166 ft | 504 kts | 106° |
| 2026-05-06 14:52 | 63.41804 | -18.15462 | 37158 ft | 502 kts | 106° |
| 2026-05-06 14:53 | 63.39738 | -18.00532 | 37164 ft | 502 kts | 106° |
| 2026-05-06 14:53 | 63.37676 | -17.85762 | 37163 ft | 502 kts | 106° |
| 2026-05-06 14:54 | 63.35581 | -17.70881 | 37173 ft | 503 kts | 107° |
| 2026-05-06 14:54 | 63.33460 | -17.55966 | 37159 ft | 505 kts | 105° |
| 2026-05-06 14:55 | 63.31321 | -17.41047 | 37162 ft | 505 kts | 107° |
| 2026-05-06 14:55 | 63.29165 | -17.26137 | 37157 ft | 506 kts | 107° |
| 2026-05-06 14:56 | 63.26998 | -17.11265 | 37148 ft | 507 kts | 107° |
| 2026-05-06 14:56 | 63.24817 | -16.96460 | 37155 ft | 508 kts | 107° |
| 2026-05-06 14:57 | 63.22605 | -16.81557 | 37158 ft | 508 kts | 107° |
| 2026-05-06 14:57 | 63.20373 | -16.66650 | 37156 ft | 507 kts | 108° |
| 2026-05-06 14:58 | 63.18144 | -16.51891 | 37142 ft | 507 kts | 107° |
| 2026-05-06 14:58 | 63.15890 | -16.37082 | 37146 ft | 506 kts | 108° |
| 2026-05-06 14:59 | 63.13640 | -16.22423 | 37139 ft | 506 kts | 108° |
| 2026-05-06 14:59 | 63.11359 | -16.07692 | 37140 ft | 507 kts | 108° |
| 2026-05-06 15:00 | 63.09052 | -15.92912 | 37143 ft | 509 kts | 108° |
| 2026-05-06 15:00 | 63.06736 | -15.78189 | 37135 ft | 508 kts | 108° |
| 2026-05-06 15:01 | 63.04404 | -15.63496 | 37138 ft | 508 kts | 109° |
| 2026-05-06 15:01 | 63.02059 | -15.48836 | 37136 ft | 507 kts | 109° |
| 2026-05-06 15:02 | 62.99681 | -15.34082 | 37132 ft | 511 kts | 109° |
| 2026-05-06 15:02 | 62.97302 | -15.19451 | 37117 ft | 511 kts | 109° |
| 2026-05-06 15:03 | 62.94891 | -15.04736 | 37137 ft | 508 kts | 109° |
| 2026-05-06 15:03 | 62.92482 | -14.90142 | 37104 ft | 509 kts | 110° |
| 2026-05-06 15:04 | 62.90042 | -14.75494 | 37123 ft | 511 kts | 110° |
| 2026-05-06 15:04 | 62.87601 | -14.60945 | 37117 ft | 514 kts | 110° |
| 2026-05-06 15:05 | 62.85121 | -14.46280 | 37094 ft | 512 kts | 110° |
| 2026-05-06 15:05 | 62.82632 | -14.31675 | 37112 ft | 510 kts | 110° |
| 2026-05-06 15:06 | 62.80140 | -14.17160 | 37102 ft | 510 kts | 110° |
| 2026-05-06 15:06 | 62.77617 | -14.02586 | 37108 ft | 514 kts | 111° |
| 2026-05-06 15:07 | 62.75067 | -13.87965 | 37098 ft | 514 kts | 111° |
| 2026-05-06 15:07 | 62.72511 | -13.73424 | 37099 ft | 518 kts | 111° |
| 2026-05-06 15:08 | 62.69927 | -13.58828 | 37090 ft | 515 kts | 111° |
| 2026-05-06 15:08 | 62.67322 | -13.44228 | 37090 ft | 517 kts | 111° |
| 2026-05-06 15:09 | 62.64724 | -13.29773 | 37094 ft | 514 kts | 112° |
| 2026-05-06 15:09 | 62.62085 | -13.15209 | 37092 ft | 518 kts | 112° |
| 2026-05-06 15:10 | 62.59429 | -13.00654 | 37076 ft | 517 kts | 112° |
| 2026-05-06 15:10 | 62.56758 | -12.86134 | 37095 ft | 516 kts | 112° |
| 2026-05-06 15:11 | 62.54102 | -12.71788 | 37052 ft | 515 kts | 112° |
| 2026-05-06 15:11 | 62.51414 | -12.57384 | 37089 ft | 515 kts | 112° |
| 2026-05-06 15:12 | 62.48733 | -12.43121 | 37060 ft | 515 kts | 113° |
| 2026-05-06 15:12 | 62.46017 | -12.28781 | 37072 ft | 514 kts | 112° |
| 2026-05-06 15:13 | 62.43308 | -12.14563 | 37057 ft | 516 kts | 113° |
| 2026-05-06 15:13 | 62.40549 | -12.00197 | 37077 ft | 517 kts | 113° |
| 2026-05-06 15:14 | 62.37782 | -11.85893 | 37056 ft | 517 kts | 113° |
| 2026-05-06 15:14 | 62.34993 | -11.71580 | 37081 ft | 515 kts | 113° |
| 2026-05-06 15:15 | 62.32228 | -11.57487 | 37052 ft | 513 kts | 114° |
| 2026-05-06 15:15 | 62.29441 | -11.43377 | 37053 ft | 512 kts | 114° |
| 2026-05-06 15:16 | 62.26628 | -11.29240 | 37051 ft | 513 kts | 114° |
| 2026-05-06 15:16 | 62.23822 | -11.15234 | 37061 ft | 514 kts | 114° |
| 2026-05-06 15:17 | 62.20978 | -11.01133 | 37055 ft | 515 kts | 114° |
| 2026-05-06 15:17 | 62.18115 | -10.87041 | 37062 ft | 516 kts | 114° |
| 2026-05-06 15:18 | 62.15256 | -10.73062 | 37045 ft | 516 kts | 114° |
| 2026-05-06 15:18 | 62.12365 | -10.59017 | 37051 ft | 515 kts | 114° |
| 2026-05-06 15:19 | 62.09462 | -10.45015 | 37039 ft | 514 kts | 115° |
| 2026-05-06 15:19 | 62.06554 | -10.31083 | 37045 ft | 513 kts | 115° |
| 2026-05-06 15:20 | 62.03633 | -10.17174 | 37045 ft | 513 kts | 115° |
| 2026-05-06 15:20 | 62.00722 | -10.03400 | 37043 ft | 513 kts | 115° |
| 2026-05-06 15:21 | 61.98222 | -9.91915 | 37038 ft | 512 kts | 116° |
| 2026-05-06 15:21 | 61.95077 | -9.78293 | 37039 ft | 512 kts | 117° |
| 2026-05-06 15:22 | 61.91905 | -9.64736 | 37038 ft | 513 kts | 117° |
| 2026-05-06 15:22 | 61.88733 | -9.51151 | 37019 ft | 513 kts | 117° |
| 2026-05-06 15:23 | 61.85559 | -9.37577 | 37033 ft | 513 kts | 117° |
| 2026-05-06 15:23 | 61.82387 | -9.24081 | 37040 ft | 514 kts | 117° |
| 2026-05-06 15:24 | 61.79180 | -9.10526 | 37035 ft | 515 kts | 117° |
| 2026-05-06 15:24 | 61.75971 | -8.97054 | 37032 ft | 516 kts | 118° |
| 2026-05-06 15:25 | 61.72725 | -8.83510 | 37030 ft | 516 kts | 118° |
| 2026-05-06 15:25 | 61.69466 | -8.69996 | 37033 ft | 516 kts | 118° |
| 2026-05-06 15:26 | 61.66196 | -8.56522 | 37035 ft | 516 kts | 118° |
| 2026-05-06 15:26 | 61.62912 | -8.43073 | 37021 ft | 516 kts | 118° |
| 2026-05-06 15:27 | 61.59619 | -8.29665 | 37028 ft | 516 kts | 118° |
| 2026-05-06 15:27 | 61.56306 | -8.16263 | 37027 ft | 516 kts | 118° |
| 2026-05-06 15:28 | 61.53005 | -8.02988 | 37029 ft | 517 kts | 119° |
| 2026-05-06 15:28 | 61.49664 | -7.89635 | 37018 ft | 517 kts | 119° |
| 2026-05-06 15:29 | 61.46310 | -7.76308 | 37016 ft | 517 kts | 119° |
| 2026-05-06 15:29 | 61.42944 | -7.63013 | 37020 ft | 517 kts | 119° |
| 2026-05-06 15:30 | 61.39562 | -7.49736 | 37018 ft | 517 kts | 119° |
| 2026-05-06 15:30 | 61.36193 | -7.36591 | 37019 ft | 517 kts | 119° |
| 2026-05-06 15:31 | 61.32791 | -7.23390 | 37022 ft | 517 kts | 120° |
| 2026-05-06 15:31 | 61.29368 | -7.10190 | 37018 ft | 517 kts | 120° |
| 2026-05-06 15:32 | 61.24245 | -6.90578 | 37025 ft | 517 kts | 120° |
| 2026-05-06 15:32 | 61.20795 | -6.77468 | 37024 ft | 517 kts | 120° |
| 2026-05-06 15:33 | 61.17332 | -6.64382 | 37021 ft | 517 kts | 120° |
| 2026-05-06 15:33 | 61.13856 | -6.51327 | 37026 ft | 516 kts | 120° |
| 2026-05-06 15:34 | 61.10351 | -6.38235 | 37033 ft | 517 kts | 120° |
| 2026-05-06 15:34 | 61.06875 | -6.25327 | 37032 ft | 517 kts | 121° |
| 2026-05-06 15:35 | 61.03355 | -6.12323 | 37036 ft | 518 kts | 121° |
| 2026-05-06 15:35 | 60.99795 | -5.99370 | 37032 ft | 518 kts | 123° |
| 2026-05-06 15:36 | 60.95745 | -5.87126 | 37036 ft | 517 kts | 127° |
| 2026-05-06 15:36 | 60.91599 | -5.75072 | 37000 ft | 517 kts | 127° |
| 2026-05-06 15:37 | 60.87451 | -5.63001 | 37028 ft | 517 kts | 127° |
| 2026-05-06 15:37 | 60.83302 | -5.50908 | 37036 ft | 518 kts | 127° |
| 2026-05-06 15:38 | 60.79142 | -5.38812 | 37030 ft | 519 kts | 127° |
| 2026-05-06 15:38 | 60.74993 | -5.26811 | 37038 ft | 519 kts | 127° |
| 2026-05-06 15:39 | 60.70775 | -5.14682 | 37031 ft | 520 kts | 127° |
| 2026-05-06 15:39 | 60.66593 | -5.02720 | 37033 ft | 520 kts | 127° |
| 2026-05-06 15:40 | 60.62377 | -4.90725 | 37028 ft | 520 kts | 128° |
| 2026-05-06 15:40 | 60.58152 | -4.78765 | 37031 ft | 520 kts | 128° |
| 2026-05-06 15:41 | 60.53911 | -4.66820 | 37036 ft | 521 kts | 128° |
| 2026-05-06 15:41 | 60.49620 | -4.54798 | 37030 ft | 521 kts | 128° |
| 2026-05-06 15:42 | 60.45374 | -4.42962 | 37030 ft | 521 kts | 128° |
| 2026-05-06 15:42 | 60.41093 | -4.31089 | 37030 ft | 521 kts | 128° |
| 2026-05-06 15:43 | 60.36799 | -4.19238 | 37023 ft | 521 kts | 128° |
| 2026-05-06 15:43 | 60.32503 | -4.07444 | 37034 ft | 521 kts | 129° |
| 2026-05-06 15:44 | 60.28190 | -3.95663 | 37033 ft | 521 kts | 129° |
| 2026-05-06 15:44 | 60.23869 | -3.83922 | 37032 ft | 521 kts | 129° |
| 2026-05-06 15:45 | 60.19544 | -3.72227 | 37033 ft | 521 kts | 129° |
| 2026-05-06 15:45 | 60.15206 | -3.60555 | 37033 ft | 521 kts | 129° |
| 2026-05-06 15:46 | 60.10879 | -3.48971 | 37018 ft | 521 kts | 129° |
| 2026-05-06 15:46 | 60.06521 | -3.37361 | 37028 ft | 521 kts | 129° |
| 2026-05-06 15:47 | 60.02157 | -3.25791 | 37038 ft | 520 kts | 129° |
| 2026-05-06 15:47 | 59.97779 | -3.14244 | 37024 ft | 520 kts | 129° |
| 2026-05-06 15:48 | 59.93397 | -3.02745 | 37031 ft | 520 kts | 129° |
| 2026-05-06 15:48 | 59.89010 | -2.91285 | 37038 ft | 519 kts | 130° |
| 2026-05-06 15:49 | 59.84614 | -2.79861 | 37001 ft | 519 kts | 130° |
| 2026-05-06 15:49 | 59.80213 | -2.68477 | 37027 ft | 518 kts | 130° |
| 2026-05-06 15:50 | 59.75834 | -2.57208 | 37047 ft | 518 kts | 130° |
| 2026-05-06 15:50 | 59.71418 | -2.45896 | 37038 ft | 518 kts | 130° |
| 2026-05-06 15:51 | 59.66999 | -2.34632 | 37042 ft | 518 kts | 130° |
| 2026-05-06 15:51 | 59.62561 | -2.23375 | 37046 ft | 517 kts | 130° |
| 2026-05-06 15:52 | 59.58120 | -2.12162 | 37013 ft | 517 kts | 130° |
| 2026-05-06 15:52 | 59.53662 | -2.00962 | 37039 ft | 517 kts | 130° |
| 2026-05-06 15:53 | 59.49207 | -1.89823 | 37042 ft | 517 kts | 131° |
| 2026-05-06 15:53 | 59.45498 | -1.80588 | 37048 ft | 517 kts | 131° |
| 2026-05-06 15:54 | 59.41016 | -1.69479 | 37050 ft | 517 kts | 131° |
| 2026-05-06 15:54 | 59.36537 | -1.58428 | 37048 ft | 517 kts | 131° |
| 2026-05-06 15:55 | 59.32068 | -1.47453 | 37047 ft | 517 kts | 131° |
| 2026-05-06 15:55 | 59.27564 | -1.36446 | 37056 ft | 517 kts | 131° |
| 2026-05-06 15:56 | 59.23052 | -1.25471 | 37053 ft | 518 kts | 131° |
| 2026-05-06 15:56 | 59.18526 | -1.14514 | 37055 ft | 519 kts | 132° |
| 2026-05-06 15:57 | 59.13971 | -1.03537 | 37054 ft | 519 kts | 132° |
| 2026-05-06 15:57 | 59.09413 | -0.92604 | 37047 ft | 520 kts | 132° |
| 2026-05-06 15:58 | 59.04841 | -0.81687 | 37054 ft | 520 kts | 132° |
| 2026-05-06 15:58 | 59.00282 | -0.70853 | 37042 ft | 519 kts | 132° |
| 2026-05-06 15:59 | 58.95693 | -0.59998 | 37050 ft | 520 kts | 132° |
| 2026-05-06 15:59 | 58.91065 | -0.49103 | 37056 ft | 520 kts | 132° |
| 2026-05-06 16:00 | 58.86458 | -0.38307 | 37056 ft | 520 kts | 133° |
| 2026-05-06 16:00 | 58.81874 | -0.27614 | 37058 ft | 520 kts | 133° |
| 2026-05-06 16:01 | 58.77222 | -0.16811 | 37059 ft | 520 kts | 133° |
| 2026-05-06 16:01 | 58.72603 | -0.06136 | 37057 ft | 520 kts | 133° |
| 2026-05-06 16:02 | 58.67956 | 0.04557 | 37060 ft | 520 kts | 133° |
| 2026-05-06 16:02 | 58.63308 | 0.15203 | 37060 ft | 519 kts | 133° |
| 2026-05-06 16:03 | 58.58675 | 0.25766 | 37061 ft | 519 kts | 133° |
| 2026-05-06 16:03 | 58.54011 | 0.36351 | 37062 ft | 518 kts | 133° |
| 2026-05-06 16:04 | 58.49347 | 0.46889 | 37063 ft | 518 kts | 133° |
| 2026-05-06 16:04 | 58.44705 | 0.57330 | 37061 ft | 517 kts | 134° |
| 2026-05-06 16:05 | 58.40032 | 0.67795 | 37060 ft | 517 kts | 134° |
| 2026-05-06 16:05 | 58.35352 | 0.78228 | 37069 ft | 517 kts | 134° |
| 2026-05-06 16:06 | 58.30660 | 0.88640 | 37068 ft | 517 kts | 134° |
| 2026-05-06 16:06 | 58.25966 | 0.99012 | 37068 ft | 517 kts | 134° |
| 2026-05-06 16:07 | 58.21283 | 1.09313 | 37071 ft | 517 kts | 134° |
| 2026-05-06 16:07 | 58.16572 | 1.19631 | 37069 ft | 516 kts | 134° |
| 2026-05-06 16:08 | 58.11870 | 1.29884 | 37064 ft | 515 kts | 134° |
| 2026-05-06 16:08 | 58.07189 | 1.40046 | 37070 ft | 514 kts | 134° |
| 2026-05-06 16:09 | 58.02479 | 1.50228 | 37071 ft | 513 kts | 135° |
| 2026-05-06 16:09 | 57.97768 | 1.60366 | 37073 ft | 513 kts | 135° |
| 2026-05-06 16:10 | 57.93050 | 1.70474 | 37073 ft | 512 kts | 135° |
| 2026-05-06 16:10 | 57.88336 | 1.80534 | 37065 ft | 511 kts | 135° |
| 2026-05-06 16:11 | 57.83615 | 1.90562 | 37065 ft | 510 kts | 135° |
| 2026-05-06 16:11 | 57.78907 | 2.00522 | 37067 ft | 509 kts | 135° |
| 2026-05-06 16:12 | 57.74226 | 2.10381 | 37070 ft | 508 kts | 135° |
| 2026-05-06 16:12 | 57.69511 | 2.20270 | 37068 ft | 508 kts | 135° |
| 2026-05-06 16:13 | 57.64793 | 2.30124 | 37068 ft | 508 kts | 135° |
| 2026-05-06 16:13 | 57.60067 | 2.39951 | 37067 ft | 507 kts | 135° |
| 2026-05-06 16:14 | 57.55377 | 2.49667 | 37069 ft | 506 kts | 136° |
| 2026-05-06 16:14 | 57.50654 | 2.59410 | 37067 ft | 505 kts | 136° |
| 2026-05-06 16:15 | 57.45929 | 2.69114 | 37067 ft | 504 kts | 136° |
| 2026-05-06 16:15 | 57.41220 | 2.78746 | 37067 ft | 504 kts | 136° |
| 2026-05-06 16:16 | 57.36502 | 2.88355 | 37068 ft | 504 kts | 136° |
| 2026-05-06 16:16 | 57.31770 | 2.97957 | 37055 ft | 503 kts | 136° |
| 2026-05-06 16:17 | 57.27081 | 3.07432 | 37060 ft | 502 kts | 136° |
| 2026-05-06 16:17 | 57.22356 | 3.16939 | 37062 ft | 501 kts | 136° |
| 2026-05-06 16:18 | 57.17636 | 3.26397 | 37062 ft | 500 kts | 136° |
| 2026-05-06 16:18 | 57.12909 | 3.35834 | 37062 ft | 500 kts | 136° |
| 2026-05-06 16:19 | 57.08201 | 3.45200 | 37060 ft | 500 kts | 136° |
| 2026-05-06 16:19 | 57.03527 | 3.54716 | 37042 ft | 502 kts | 132° |
| 2026-05-06 16:20 | 56.99632 | 3.65418 | 37061 ft | 506 kts | 124° |
| 2026-05-06 16:20 | 56.96028 | 3.76537 | 37054 ft | 506 kts | 124° |
| 2026-05-06 16:21 | 56.92389 | 3.87500 | 37052 ft | 506 kts | 125° |
| 2026-05-06 16:21 | 56.88699 | 3.98480 | 37052 ft | 506 kts | 125° |
| 2026-05-06 16:22 | 56.84986 | 4.09471 | 37047 ft | 506 kts | 125° |
| 2026-05-06 16:22 | 56.81279 | 4.20406 | 37044 ft | 506 kts | 125° |
| 2026-05-06 16:23 | 56.77529 | 4.31420 | 37041 ft | 506 kts | 126° |
| 2026-05-06 16:23 | 56.73836 | 4.42223 | 37039 ft | 505 kts | 126° |
| 2026-05-06 16:24 | 56.70749 | 4.51213 | 37039 ft | 504 kts | 126° |
| 2026-05-06 16:24 | 56.67017 | 4.62039 | 37045 ft | 503 kts | 126° |
| 2026-05-06 16:25 | 56.63282 | 4.72824 | 37032 ft | 503 kts | 126° |
| 2026-05-06 16:25 | 56.59551 | 4.83549 | 37034 ft | 502 kts | 126° |
| 2026-05-06 16:26 | 56.55803 | 4.94284 | 37032 ft | 502 kts | 126° |
| 2026-05-06 16:26 | 56.52034 | 5.04928 | 37032 ft | 501 kts | 127° |
| 2026-05-06 16:27 | 56.48144 | 5.15408 | 37027 ft | 501 kts | 128° |
| 2026-05-06 16:27 | 56.44222 | 5.25846 | 37019 ft | 501 kts | 128° |
| 2026-05-06 16:28 | 56.40331 | 5.36218 | 37020 ft | 501 kts | 128° |
| 2026-05-06 16:28 | 56.36418 | 5.46644 | 37022 ft | 501 kts | 128° |
| 2026-05-06 16:29 | 56.32499 | 5.57052 | 37023 ft | 501 kts | 128° |
| 2026-05-06 16:29 | 56.28573 | 5.67431 | 37021 ft | 501 kts | 128° |
| 2026-05-06 16:30 | 56.25301 | 5.76046 | 37015 ft | 501 kts | 128° |
| 2026-05-06 16:30 | 56.20713 | 5.88072 | 37022 ft | 501 kts | 128° |
| 2026-05-06 16:31 | 56.16749 | 5.98416 | 37014 ft | 501 kts | 128° |
| 2026-05-06 16:31 | 56.12790 | 6.08701 | 37007 ft | 500 kts | 128° |
| 2026-05-06 16:32 | 56.08828 | 6.18953 | 37009 ft | 500 kts | 128° |
| 2026-05-06 16:32 | 56.04863 | 6.29170 | 36994 ft | 499 kts | 128° |
| 2026-05-06 16:33 | 56.00890 | 6.39365 | 37009 ft | 498 kts | 129° |
| 2026-05-06 16:34 | 55.94948 | 6.54531 | 37006 ft | 497 kts | 129° |
| 2026-05-06 16:34 | 55.90957 | 6.64666 | 36997 ft | 497 kts | 129° |
| 2026-05-06 16:35 | 55.86997 | 6.74681 | 36999 ft | 497 kts | 129° |
| 2026-05-06 16:35 | 55.83001 | 6.84746 | 36986 ft | 496 kts | 129° |
| 2026-05-06 16:36 | 55.79008 | 6.94763 | 36990 ft | 496 kts | 129° |
| 2026-05-06 16:36 | 55.75347 | 7.03908 | 36984 ft | 496 kts | 129° |
| 2026-05-06 16:37 | 55.71324 | 7.13922 | 36985 ft | 496 kts | 129° |
| 2026-05-06 16:37 | 55.67302 | 7.23891 | 36978 ft | 497 kts | 129° |
| 2026-05-06 16:38 | 55.63254 | 7.33886 | 36970 ft | 496 kts | 129° |
| 2026-05-06 16:38 | 55.59224 | 7.43799 | 36969 ft | 496 kts | 129° |
| 2026-05-06 16:39 | 55.55177 | 7.53716 | 36950 ft | 495 kts | 129° |
| 2026-05-06 16:39 | 55.50902 | 7.63181 | 36980 ft | 490 kts | 136° |
| 2026-05-06 16:40 | 55.46274 | 7.72036 | 36953 ft | 490 kts | 136° |
| 2026-05-06 16:40 | 55.41671 | 7.80804 | 36955 ft | 489 kts | 136° |
| 2026-05-06 16:41 | 55.37058 | 7.89639 | 36950 ft | 489 kts | 136° |
| 2026-05-06 16:41 | 55.32430 | 7.98508 | 36942 ft | 489 kts | 136° |
| 2026-05-06 16:42 | 55.27851 | 8.07253 | 36942 ft | 489 kts | 136° |
| 2026-05-06 16:42 | 55.23233 | 8.16035 | 36930 ft | 489 kts | 136° |
| 2026-05-06 16:43 | 55.18624 | 8.24767 | 36937 ft | 488 kts | 136° |
| 2026-05-06 16:43 | 55.14007 | 8.33481 | 36929 ft | 488 kts | 136° |
| 2026-05-06 16:44 | 55.09374 | 8.42195 | 36934 ft | 488 kts | 136° |
| 2026-05-06 16:44 | 55.04734 | 8.50889 | 36920 ft | 488 kts | 137° |
| 2026-05-06 16:45 | 55.00102 | 8.59539 | 36916 ft | 488 kts | 137° |
| 2026-05-06 16:45 | 54.95451 | 8.68195 | 36892 ft | 488 kts | 136° |
| 2026-05-06 16:46 | 54.90824 | 8.76769 | 36895 ft | 488 kts | 137° |
| 2026-05-06 16:46 | 54.85836 | 8.84677 | 36913 ft | 484 kts | 143° |
| 2026-05-06 16:47 | 54.80681 | 8.92212 | 36911 ft | 484 kts | 143° |
| 2026-05-06 16:47 | 54.75517 | 8.99763 | 36915 ft | 485 kts | 143° |
| 2026-05-06 16:48 | 54.70370 | 9.07323 | 36910 ft | 485 kts | 143° |
| 2026-05-06 16:48 | 54.65212 | 9.14897 | 36894 ft | 485 kts | 143° |
| 2026-05-06 16:49 | 54.60062 | 9.22435 | 36892 ft | 485 kts | 143° |
| 2026-05-06 16:49 | 54.54885 | 9.29984 | 36917 ft | 484 kts | 143° |
| 2026-05-06 16:50 | 54.49727 | 9.37476 | 36918 ft | 484 kts | 143° |
| 2026-05-06 16:50 | 54.44585 | 9.44920 | 36903 ft | 483 kts | 143° |
| 2026-05-06 16:51 | 54.39460 | 9.52314 | 36911 ft | 483 kts | 143° |
| 2026-05-06 16:51 | 54.34308 | 9.59723 | 36885 ft | 483 kts | 143° |
| 2026-05-06 16:52 | 54.29151 | 9.67113 | 36883 ft | 482 kts | 143° |
| 2026-05-06 16:52 | 54.23992 | 9.74482 | 36884 ft | 482 kts | 143° |
| 2026-05-06 16:53 | 54.18853 | 9.81797 | 36890 ft | 482 kts | 143° |
| 2026-05-06 16:53 | 54.14529 | 9.87933 | 36893 ft | 482 kts | 143° |
| 2026-05-06 16:54 | 54.09364 | 9.95240 | 36889 ft | 482 kts | 143° |
| 2026-05-06 16:54 | 54.04219 | 10.02495 | 36889 ft | 482 kts | 143° |
| 2026-05-06 16:55 | 53.98969 | 10.09874 | 36894 ft | 482 kts | 143° |
| 2026-05-06 16:55 | 53.93848 | 10.17046 | 36890 ft | 483 kts | 143° |
| 2026-05-06 16:56 | 53.88665 | 10.24281 | 36886 ft | 483 kts | 144° |
| 2026-05-06 16:56 | 53.83474 | 10.31504 | 36885 ft | 483 kts | 144° |
| 2026-05-06 16:57 | 53.78231 | 10.38775 | 36872 ft | 483 kts | 144° |
| 2026-05-06 16:57 | 53.73025 | 10.45970 | 36880 ft | 482 kts | 144° |
| 2026-05-06 16:58 | 53.67826 | 10.53134 | 36885 ft | 482 kts | 144° |
| 2026-05-06 16:58 | 53.62619 | 10.60283 | 36886 ft | 482 kts | 144° |
| 2026-05-06 16:59 | 53.57413 | 10.67408 | 36870 ft | 482 kts | 144° |
| 2026-05-06 16:59 | 53.52198 | 10.74522 | 36874 ft | 482 kts | 144° |
| 2026-05-06 17:00 | 53.46983 | 10.81612 | 36858 ft | 482 kts | 144° |
| 2026-05-06 17:00 | 53.41932 | 10.88455 | 36835 ft | 478 kts | 144° |
| 2026-05-06 17:01 | 53.36742 | 10.95466 | 36856 ft | 479 kts | 144° |
| 2026-05-06 17:01 | 53.31530 | 11.02486 | 36845 ft | 480 kts | 145° |
| 2026-05-06 17:02 | 53.26336 | 11.09461 | 36850 ft | 481 kts | 145° |
| 2026-05-06 17:02 | 53.21076 | 11.16500 | 36827 ft | 481 kts | 145° |
| 2026-05-06 17:03 | 53.15841 | 11.23488 | 36840 ft | 481 kts | 145° |
| 2026-05-06 17:03 | 53.10591 | 11.30451 | 36826 ft | 481 kts | 146° |
| 2026-05-06 17:04 | 53.05329 | 11.37239 | 36838 ft | 480 kts | 146° |
| 2026-05-06 17:04 | 53.00028 | 11.44064 | 36835 ft | 480 kts | 146° |
| 2026-05-06 17:05 | 52.94780 | 11.50824 | 36830 ft | 480 kts | 146° |
| 2026-05-06 17:05 | 52.89486 | 11.57601 | 36841 ft | 480 kts | 146° |
| 2026-05-06 17:06 | 52.84191 | 11.64336 | 36824 ft | 480 kts | 146° |
| 2026-05-06 17:06 | 52.78889 | 11.71067 | 36830 ft | 479 kts | 146° |
| 2026-05-06 17:07 | 52.73586 | 11.77781 | 36826 ft | 479 kts | 146° |
| 2026-05-06 17:07 | 52.68310 | 11.84444 | 36827 ft | 478 kts | 147° |
| 2026-05-06 17:08 | 52.63028 | 11.91150 | 36815 ft | 479 kts | 144° |
| 2026-05-06 17:08 | 52.58054 | 11.98385 | 36827 ft | 480 kts | 142° |
| 2026-05-06 17:09 | 52.53072 | 12.05724 | 36804 ft | 480 kts | 142° |
| 2026-05-06 17:09 | 52.48088 | 12.13002 | 36814 ft | 479 kts | 143° |
| 2026-05-06 17:10 | 52.43089 | 12.20254 | 36826 ft | 479 kts | 143° |
| 2026-05-06 17:10 | 52.38116 | 12.27450 | 36816 ft | 479 kts | 143° |
| 2026-05-06 17:11 | 52.33116 | 12.34710 | 36812 ft | 480 kts | 141° |
| 2026-05-06 17:11 | 52.28449 | 12.42688 | 36802 ft | 483 kts | 137° |
| 2026-05-06 17:12 | 52.23756 | 12.50405 | 36812 ft | 479 kts | 142° |
| 2026-05-06 17:12 | 52.18754 | 12.57730 | 36809 ft | 479 kts | 142° |
| 2026-05-06 17:13 | 52.13808 | 12.65009 | 36810 ft | 479 kts | 142° |
| 2026-05-06 17:13 | 52.08854 | 12.72313 | 36813 ft | 479 kts | 142° |
| 2026-05-06 17:14 | 52.03897 | 12.79581 | 36799 ft | 479 kts | 142° |
| 2026-05-06 17:14 | 51.98967 | 12.86794 | 36795 ft | 479 kts | 143° |
| 2026-05-06 17:15 | 51.93939 | 12.94130 | 36796 ft | 478 kts | 143° |
| 2026-05-06 17:15 | 51.89863 | 13.00059 | 36805 ft | 477 kts | 143° |
| 2026-05-06 17:16 | 51.84081 | 13.08460 | 36798 ft | 477 kts | 143° |
| 2026-05-06 17:16 | 51.79161 | 13.15586 | 36776 ft | 477 kts | 143° |
| 2026-05-06 17:17 | 51.74217 | 13.22718 | 36758 ft | 475 kts | 143° |
| 2026-05-06 17:17 | 51.69279 | 13.29822 | 36767 ft | 475 kts | 143° |
| 2026-05-06 17:18 | 51.64341 | 13.36899 | 36786 ft | 474 kts | 143° |
| 2026-05-06 17:18 | 51.60237 | 13.42746 | 36787 ft | 475 kts | 144° |
| 2026-05-06 17:19 | 51.55282 | 13.49788 | 36781 ft | 475 kts | 144° |
| 2026-05-06 17:19 | 51.50307 | 13.56846 | 36781 ft | 475 kts | 144° |
| 2026-05-06 17:20 | 51.45346 | 13.63862 | 36776 ft | 475 kts | 144° |
| 2026-05-06 17:20 | 51.40401 | 13.70825 | 36780 ft | 475 kts | 144° |
| 2026-05-06 17:21 | 51.35424 | 13.77818 | 36770 ft | 475 kts | 144° |
| 2026-05-06 17:21 | 51.30444 | 13.84800 | 36758 ft | 475 kts | 144° |
| 2026-05-06 17:22 | 51.25451 | 13.91772 | 36757 ft | 476 kts | 144° |
| 2026-05-06 17:22 | 51.20454 | 13.98720 | 36735 ft | 476 kts | 144° |
| 2026-05-06 17:23 | 51.15356 | 14.05793 | 36750 ft | 476 kts | 144° |
| 2026-05-06 17:23 | 51.10373 | 14.12690 | 36764 ft | 477 kts | 144° |
| 2026-05-06 17:24 | 51.05357 | 14.19610 | 36763 ft | 477 kts | 144° |
| 2026-05-06 17:24 | 51.00325 | 14.26548 | 36760 ft | 477 kts | 144° |
| 2026-05-06 17:25 | 50.95266 | 14.33514 | 36760 ft | 477 kts | 144° |
| 2026-05-06 17:25 | 50.90253 | 14.40449 | 36748 ft | 477 kts | 143° |
| 2026-05-06 17:26 | 50.85349 | 14.47453 | 36755 ft | 476 kts | 143° |
| 2026-05-06 17:26 | 50.80413 | 14.54531 | 36761 ft | 475 kts | 143° |
| 2026-05-06 17:27 | 50.75497 | 14.61532 | 36755 ft | 475 kts | 143° |
| 2026-05-06 17:27 | 50.70567 | 14.68514 | 36747 ft | 474 kts | 144° |
| 2026-05-06 17:28 | 50.65648 | 14.75452 | 36757 ft | 474 kts | 144° |
| 2026-05-06 17:28 | 50.60751 | 14.82338 | 36751 ft | 473 kts | 144° |
| 2026-05-06 17:29 | 50.55803 | 14.89280 | 36758 ft | 473 kts | 144° |
| 2026-05-06 17:29 | 50.50874 | 14.96172 | 36751 ft | 473 kts | 144° |
| 2026-05-06 17:30 | 50.45943 | 15.03050 | 36746 ft | 473 kts | 144° |
| 2026-05-06 17:30 | 50.41009 | 15.09909 | 36761 ft | 473 kts | 144° |
| 2026-05-06 17:31 | 50.36034 | 15.16807 | 36762 ft | 474 kts | 144° |
| 2026-05-06 17:31 | 50.31114 | 15.23608 | 36755 ft | 474 kts | 144° |
| 2026-05-06 17:32 | 50.26161 | 15.30438 | 36751 ft | 474 kts | 144° |
| 2026-05-06 17:32 | 50.21200 | 15.37256 | 36766 ft | 474 kts | 144° |
| 2026-05-06 17:33 | 50.16222 | 15.44078 | 36743 ft | 475 kts | 145° |
| 2026-05-06 17:33 | 50.11241 | 15.50885 | 36738 ft | 476 kts | 145° |
| 2026-05-06 17:34 | 50.06271 | 15.57658 | 36735 ft | 476 kts | 145° |
| 2026-05-06 17:34 | 50.01265 | 15.64461 | 36743 ft | 476 kts | 145° |
| 2026-05-06 17:35 | 49.96261 | 15.71241 | 36747 ft | 476 kts | 145° |
| 2026-05-06 17:35 | 49.91281 | 15.77970 | 36743 ft | 476 kts | 145° |
| 2026-05-06 17:36 | 49.83773 | 15.88077 | 36744 ft | 476 kts | 145° |
| 2026-05-06 17:36 | 49.78745 | 15.94822 | 36745 ft | 476 kts | 145° |
| 2026-05-06 17:37 | 49.73739 | 16.01518 | 36703 ft | 476 kts | 146° |
| 2026-05-06 17:37 | 49.68697 | 16.08243 | 36737 ft | 478 kts | 146° |
| 2026-05-06 17:38 | 49.63642 | 16.14964 | 36737 ft | 480 kts | 146° |
| 2026-05-06 17:38 | 49.59418 | 16.20567 | 36733 ft | 481 kts | 146° |
| 2026-05-06 17:39 | 49.54337 | 16.27289 | 36740 ft | 481 kts | 146° |
| 2026-05-06 17:39 | 49.49235 | 16.34023 | 36713 ft | 481 kts | 146° |
| 2026-05-06 17:40 | 49.44129 | 16.40741 | 36742 ft | 481 kts | 146° |
| 2026-05-06 17:40 | 49.39066 | 16.47383 | 36727 ft | 482 kts | 146° |
| 2026-05-06 17:41 | 49.33957 | 16.54067 | 36748 ft | 482 kts | 146° |
| 2026-05-06 17:41 | 49.28829 | 16.60757 | 36732 ft | 482 kts | 146° |
| 2026-05-06 17:42 | 49.23721 | 16.67401 | 36734 ft | 482 kts | 146° |
| 2026-05-06 17:42 | 49.18602 | 16.74040 | 36732 ft | 482 kts | 145° |
| 2026-05-06 17:43 | 49.13510 | 16.80627 | 36741 ft | 482 kts | 145° |
| 2026-05-06 17:43 | 49.08372 | 16.87255 | 36752 ft | 483 kts | 145° |
| 2026-05-06 17:44 | 49.03221 | 16.93882 | 36754 ft | 484 kts | 146° |
| 2026-05-06 17:44 | 48.98072 | 17.00488 | 36759 ft | 484 kts | 146° |
| 2026-05-06 17:45 | 48.92910 | 17.07093 | 36758 ft | 484 kts | 146° |
| 2026-05-06 17:45 | 48.87748 | 17.13682 | 36767 ft | 484 kts | 145° |
| 2026-05-06 17:46 | 48.82747 | 17.20575 | 36776 ft | 488 kts | 140° |
| 2026-05-06 17:46 | 48.77975 | 17.27908 | 36771 ft | 488 kts | 140° |
| 2026-05-06 17:47 | 48.73202 | 17.35256 | 36772 ft | 488 kts | 140° |
| 2026-05-06 17:47 | 48.68424 | 17.42590 | 36776 ft | 488 kts | 140° |
| 2026-05-06 17:48 | 48.63646 | 17.49895 | 36774 ft | 488 kts | 140° |
| 2026-05-06 17:48 | 48.58865 | 17.57179 | 36776 ft | 487 kts | 140° |
| 2026-05-06 17:49 | 48.54083 | 17.64445 | 36774 ft | 486 kts | 140° |
| 2026-05-06 17:49 | 48.49304 | 17.71685 | 36782 ft | 486 kts | 140° |
| 2026-05-06 17:50 | 48.44557 | 17.78858 | 36792 ft | 486 kts | 140° |
| 2026-05-06 17:50 | 48.39760 | 17.86084 | 36807 ft | 486 kts | 140° |
| 2026-05-06 17:51 | 48.34969 | 17.93282 | 36784 ft | 486 kts | 140° |
| 2026-05-06 17:51 | 48.30175 | 18.00466 | 36806 ft | 485 kts | 140° |
| 2026-05-06 17:52 | 48.25389 | 18.07617 | 36811 ft | 485 kts | 140° |
| 2026-05-06 17:52 | 48.20626 | 18.14712 | 36819 ft | 484 kts | 140° |
| 2026-05-06 17:53 | 48.15832 | 18.21835 | 36819 ft | 483 kts | 140° |
| 2026-05-06 17:53 | 48.11045 | 18.28928 | 36819 ft | 483 kts | 140° |
| 2026-05-06 17:54 | 48.06251 | 18.36010 | 36834 ft | 483 kts | 140° |
| 2026-05-06 17:54 | 48.01461 | 18.43068 | 36845 ft | 484 kts | 140° |
| 2026-05-06 17:55 | 47.96661 | 18.50121 | 36838 ft | 484 kts | 140° |
| 2026-05-06 17:55 | 47.91853 | 18.57167 | 36840 ft | 484 kts | 140° |
| 2026-05-06 17:56 | 47.87075 | 18.64151 | 36857 ft | 484 kts | 140° |
| 2026-05-06 17:56 | 47.82245 | 18.71195 | 36858 ft | 485 kts | 140° |
| 2026-05-06 17:57 | 47.77433 | 18.78246 | 36865 ft | 486 kts | 140° |
| 2026-05-06 17:57 | 47.72616 | 18.85407 | 36851 ft | 486 kts | 139° |
| 2026-05-06 17:58 | 47.67816 | 18.92538 | 36862 ft | 486 kts | 139° |
| 2026-05-06 17:58 | 47.63017 | 18.99635 | 36873 ft | 486 kts | 139° |
| 2026-05-06 17:59 | 47.58221 | 19.06697 | 36881 ft | 485 kts | 139° |
| 2026-05-06 17:59 | 47.53459 | 19.13688 | 36860 ft | 485 kts | 139° |
| 2026-05-06 18:00 | 47.48638 | 19.20748 | 36881 ft | 485 kts | 139° |
| 2026-05-06 18:00 | 47.43833 | 19.27763 | 36885 ft | 486 kts | 140° |
| 2026-05-06 18:01 | 47.39022 | 19.34769 | 36888 ft | 486 kts | 140° |
| 2026-05-06 18:01 | 47.34189 | 19.41789 | 36884 ft | 486 kts | 140° |
| 2026-05-06 18:02 | 47.29356 | 19.48789 | 36881 ft | 487 kts | 140° |
| 2026-05-06 18:02 | 47.24511 | 19.55789 | 36886 ft | 488 kts | 140° |
| 2026-05-06 18:03 | 47.19662 | 19.62774 | 36893 ft | 488 kts | 140° |
| 2026-05-06 18:03 | 47.14792 | 19.69770 | 36890 ft | 489 kts | 140° |
| 2026-05-06 18:04 | 47.10733 | 19.75588 | 36892 ft | 489 kts | 140° |
| 2026-05-06 18:04 | 47.05048 | 19.83714 | 36901 ft | 490 kts | 140° |
| 2026-05-06 18:05 | 47.01190 | 19.89215 | 36898 ft | 491 kts | 140° |
| 2026-05-06 18:05 | 46.96285 | 19.96191 | 36898 ft | 491 kts | 140° |
| 2026-05-06 18:06 | 46.91362 | 20.03172 | 36881 ft | 491 kts | 140° |
| 2026-05-06 18:06 | 46.86472 | 20.10090 | 36903 ft | 492 kts | 140° |
| 2026-05-06 18:07 | 46.81548 | 20.17036 | 36897 ft | 492 kts | 140° |
| 2026-05-06 18:07 | 46.76617 | 20.23974 | 36891 ft | 492 kts | 140° |
| 2026-05-06 18:08 | 46.71681 | 20.30900 | 36901 ft | 492 kts | 140° |
| 2026-05-06 18:08 | 46.66667 | 20.37916 | 36894 ft | 492 kts | 140° |
| 2026-05-06 18:09 | 46.61795 | 20.44716 | 36901 ft | 491 kts | 140° |
| 2026-05-06 18:09 | 46.56857 | 20.51590 | 36900 ft | 491 kts | 140° |
| 2026-05-06 18:10 | 46.51913 | 20.58454 | 36889 ft | 490 kts | 140° |
| 2026-05-06 18:10 | 46.46980 | 20.65285 | 36900 ft | 491 kts | 140° |
| 2026-05-06 18:11 | 46.44498 | 20.68713 | 37050 ft | 493 kts | 140° |
| 2026-05-06 18:11 | 46.42013 | 20.72142 | 37402 ft | 492 kts | 140° |
| 2026-05-06 18:11 | 46.39541 | 20.75551 | 37831 ft | 489 kts | 140° |
| 2026-05-06 18:11 | 46.37079 | 20.78941 | 38243 ft | 486 kts | 140° |
| 2026-05-06 18:12 | 46.34629 | 20.82311 | 38621 ft | 485 kts | 140° |
| 2026-05-06 18:12 | 46.32179 | 20.85675 | 38820 ft | 485 kts | 140° |
| 2026-05-06 18:12 | 46.27211 | 20.92476 | 38882 ft | 490 kts | 140° |
| 2026-05-06 18:13 | 46.22254 | 20.99250 | 38904 ft | 488 kts | 140° |
| 2026-05-06 18:13 | 46.17321 | 21.05978 | 38911 ft | 485 kts | 140° |
| 2026-05-06 18:14 | 46.12416 | 21.12647 | 38913 ft | 483 kts | 140° |
| 2026-05-06 18:14 | 46.07511 | 21.19297 | 38911 ft | 484 kts | 140° |
| 2026-05-06 18:15 | 46.02610 | 21.25923 | 38923 ft | 485 kts | 140° |
| 2026-05-06 18:15 | 45.97639 | 21.32629 | 38921 ft | 487 kts | 140° |
| 2026-05-06 18:16 | 45.92693 | 21.39284 | 38916 ft | 489 kts | 140° |
| 2026-05-06 18:16 | 45.87710 | 21.45972 | 38906 ft | 491 kts | 140° |
| 2026-05-06 18:17 | 45.82710 | 21.52666 | 38918 ft | 492 kts | 140° |
| 2026-05-06 18:17 | 45.77704 | 21.59350 | 38934 ft | 493 kts | 140° |
| 2026-05-06 18:18 | 45.72657 | 21.66073 | 38935 ft | 493 kts | 140° |
| 2026-05-06 18:18 | 45.67613 | 21.72773 | 38927 ft | 493 kts | 140° |
| 2026-05-06 18:19 | 45.62582 | 21.79439 | 38942 ft | 493 kts | 140° |
| 2026-05-06 18:19 | 45.57542 | 21.86100 | 38942 ft | 493 kts | 140° |
| 2026-05-06 18:20 | 45.48305 | 21.98263 | 38954 ft | 493 kts | 140° |
| 2026-05-06 18:20 | 45.38199 | 22.11505 | 38974 ft | 493 kts | 140° |
| 2026-05-06 18:21 | 45.28912 | 22.23671 | 38967 ft | 493 kts | 140° |
| 2026-05-06 18:21 | 45.23842 | 22.30236 | 38980 ft | 493 kts | 140° |
| 2026-05-06 18:22 | 45.18757 | 22.36798 | 38992 ft | 494 kts | 140° |
| 2026-05-06 18:22 | 45.13649 | 22.43392 | 39001 ft | 495 kts | 140° |
| 2026-05-06 18:23 | 45.08571 | 22.49941 | 38987 ft | 497 kts | 140° |
| 2026-05-06 18:23 | 45.03447 | 22.56533 | 38990 ft | 498 kts | 140° |
| 2026-05-06 18:24 | 44.98302 | 22.63133 | 38976 ft | 498 kts | 140° |
| 2026-05-06 18:24 | 44.93156 | 22.69720 | 38975 ft | 498 kts | 140° |
| 2026-05-06 18:25 | 44.88037 | 22.76255 | 38971 ft | 499 kts | 140° |
| 2026-05-06 18:25 | 44.82869 | 22.82835 | 38980 ft | 499 kts | 140° |
| 2026-05-06 18:26 | 44.77709 | 22.89389 | 38957 ft | 499 kts | 140° |
| 2026-05-06 18:26 | 44.72539 | 22.95938 | 38973 ft | 498 kts | 140° |
| 2026-05-06 18:27 | 44.67412 | 23.02417 | 38974 ft | 498 kts | 140° |
| 2026-05-06 18:27 | 44.62243 | 23.08935 | 38970 ft | 497 kts | 140° |
| 2026-05-06 18:28 | 44.57079 | 23.15428 | 38973 ft | 497 kts | 140° |
| 2026-05-06 18:28 | 44.51927 | 23.21890 | 38962 ft | 497 kts | 140° |